Time;durP1;ratioP1;P1;durP2;ratioP2;P2;SDS_P1;SDS_P2;PMS_P1;PMS_P2;Temp;Humidity;BMP_temperature;BMP_pressure;BME280_temperature;BME280_humidity;BME280_pressure;Samples;Min_cycle;Max_cycle;Signal;HPM_P1;HPM_P2
2021/08/10 00:01:44;;;;;;;0.10;0.10;;;;;;;26.25;51.70;100001.84;5130416;28;20046;-65
2021/08/10 00:04:10;;;;;;;0.30;0.30;;;;;;;26.24;51.41;99992.16;5130362;28;20039;-66
2021/08/10 00:06:36;;;;;;;0.13;0.13;;;;;;;26.20;51.34;99980.97;5129972;28;20335;-62
2021/08/10 00:09:02;;;;;;;0.20;0.20;;;;;;;26.22;51.38;99988.81;5130371;28;20086;-62
2021/08/10 00:11:28;;;;;;;0.10;0.10;;;;;;;26.17;51.67;99986.69;5130104;28;20466;-64
2021/08/10 00:14:14;;;;;;;0.20;0.20;;;;;;;26.14;52.06;99975.50;5114932;28;20039;-63
2021/08/10 00:17:00;;;;;;;0.20;0.20;;;;;;;26.13;52.14;99990.72;5115067;28;20043;-63
2021/08/10 00:19:46;;;;;;;0.20;0.20;;;;;;;25.99;52.51;99970.09;5130160;28;20327;-63
2021/08/10 00:22:32;;;;;;;0.57;0.57;;;;;;;26.07;52.66;99982.56;5129982;28;20191;-63
2021/08/10 00:25:18;;;;;;;0.00;0.00;;;;;;;26.03;52.55;99978.59;5130134;28;20417;-63
2021/08/10 00:28:04;;;;;;;0.10;0.10;;;;;;;25.99;52.36;99977.28;5114816;27;20509;-64
2021/08/10 00:30:49;;;;;;;0.30;0.30;;;;;;;26.03;52.54;99984.78;5118952;27;20047;-64
2021/08/10 00:33:35;;;;;;;0.20;0.20;;;;;;;26.01;52.58;99981.47;5134099;27;20081;-65
2021/08/10 00:36:21;;;;;;;0.40;0.40;;;;;;;25.96;52.79;99978.47;5104353;27;20508;-65
2021/08/10 00:39:09;;;;;;;0.10;0.10;;;;;;;25.93;53.05;99968.13;5104851;27;20043;-64
2021/08/10 00:41:57;;;;;;;0.10;0.10;;;;;;;25.91;52.96;99970.97;5104827;27;20055;-65
2021/08/10 00:44:43;;;;;;;0.60;0.60;;;;;;;25.91;52.92;99970.97;5118561;27;20082;-64
2021/08/10 00:47:29;;;;;;;0.10;0.10;;;;;;;25.90;53.23;99974.69;5118328;27;20394;-65
2021/08/10 00:50:15;;;;;;;0.10;0.10;;;;;;;25.87;53.51;99975.03;5118534;27;20055;-65
2021/08/10 00:53:04;;;;;;;0.40;0.40;;;;;;;25.86;53.21;99973.38;5118537;27;20035;-63
2021/08/10 00:55:49;;;;;;;0.40;0.40;;;;;;;25.84;53.55;99970.03;5118370;27;20043;-64
2021/08/10 00:58:36;;;;;;;0.52;0.45;;;;;;;25.82;53.63;99972.06;5104295;27;20043;-64
2021/08/10 01:01:22;;;;;;;0.30;0.30;;;;;;;25.80;53.56;99974.09;5118008;27;20061;-65
2021/08/10 01:04:09;;;;;;;0.20;0.20;;;;;;;25.77;53.90;99974.44;5118640;27;20046;-68
2021/08/10 01:07:15;;;;;;;0.03;0.03;;;;;;;25.74;53.95;99968.63;5118422;27;20047;-65
2021/08/10 01:10:34;;;;;;;0.10;0.10;;;;;;;25.73;53.65;99970.47;5118245;27;20418;-65
2021/08/10 01:13:35;;;;;;;0.43;0.43;;;;;;;25.74;53.86;99972.13;5118641;27;20043;-67
2021/08/10 01:16:44;;;;;;;0.10;0.10;;;;;;;25.73;53.66;99967.78;5104500;27;20138;-64
2021/08/10 01:19:43;;;;;;;0.08;0.08;;;;;;;25.70;53.79;99973.50;5117979;27;20046;-64
2021/08/10 01:22:32;;;;;;;0.20;0.20;;;;;;;25.72;53.77;99971.44;5105339;27;20123;-66
2021/08/10 01:25:34;;;;;;;0.10;0.10;;;;;;;25.70;53.64;99973.50;5104089;27;20070;-65
2021/08/10 01:28:39;;;;;;;0.20;0.20;;;;;;;25.73;53.67;99980.31;5104016;27;20481;-65
2021/08/10 01:36:07;;;;;;;0.10;0.10;;;;;;;25.71;53.31;99975.16;4996540;28;20092;-66
2021/08/10 01:38:57;;;;;;;0.25;0.20;;;;;;;25.68;53.65;99975.53;5015687;28;20124;-61
2021/08/10 01:41:46;;;;;;;0.10;0.10;;;;;;;25.71;53.53;99971.66;5042502;27;20136;-64
2021/08/10 01:44:33;;;;;;;0.40;0.40;;;;;;;25.64;53.30;99962.66;5117594;27;20502;-65
2021/08/10 01:47:30;;;;;;;0.30;0.30;;;;;;;25.71;53.35;99980.50;5104498;27;20525;-68
2021/08/10 01:50:22;;;;;;;0.17;0.17;;;;;;;25.68;53.58;99972.84;5090971;27;20039;-64
2021/08/10 01:53:34;;;;;;;0.10;0.10;;;;;;;25.66;53.53;99972.16;5121037;27;20058;-64
2021/08/10 01:56:20;;;;;;;0.10;0.10;;;;;;;25.70;53.34;99976.16;5116989;27;20317;-65
2021/08/10 01:59:07;;;;;;;0.10;0.10;;;;;;;25.72;53.38;99982.16;5103200;27;20043;-65
2021/08/10 02:01:54;;;;;;;0.15;0.15;;;;;;;25.73;53.58;99972.28;5103286;27;20031;-64
2021/08/10 02:04:42;;;;;;;0.25;0.25;;;;;;;25.74;53.69;99979.31;5116845;27;20417;-65
2021/08/10 02:07:28;;;;;;;0.40;0.40;;;;;;;25.74;53.66;99974.81;5102670;27;20656;-67
2021/08/10 02:10:17;;;;;;;0.25;0.25;;;;;;;25.77;53.43;99979.78;5117076;27;20047;-63
2021/08/10 02:13:05;;;;;;;0.22;0.22;;;;;;;25.82;53.40;99976.56;5117678;27;20068;-65
2021/08/10 02:15:57;;;;;;;0.10;0.10;;;;;;;25.88;53.04;99965.97;5132941;27;20043;-61
2021/08/10 02:18:47;;;;;;;0.22;0.22;;;;;;;26.06;52.87;99973.69;5104087;27;20043;-64
2021/08/10 02:21:44;;;;;;;0.10;0.10;;;;;;;26.20;52.29;99974.78;5104518;27;20520;-66
2021/08/10 02:24:36;;;;;;;0.20;0.20;;;;;;;26.33;52.02;99964.28;5102876;27;20050;-66
2021/08/10 02:27:39;;;;;;;0.25;0.25;;;;;;;26.42;51.54;99953.31;5117370;27;20501;-63
2021/08/10 02:30:29;;;;;;;0.80;0.80;;;;;;;26.70;51.10;99968.75;5103913;27;20079;-67
2021/08/10 02:33:20;;;;;;;0.22;0.22;;;;;;;26.87;50.30;99963.03;5117625;27;20035;-66
2021/08/10 02:36:09;;;;;;;0.30;0.30;;;;;;;27.08;50.04;99967.63;5104933;27;20038;-67
2021/08/10 02:38:58;;;;;;;0.10;0.10;;;;;;;27.29;49.50;99961.50;5132486;27;20108;-66
2021/08/10 02:41:45;;;;;;;0.20;0.20;;;;;;;27.52;48.76;99964.06;5103124;27;20509;-65
2021/08/10 02:44:35;;;;;;;0.10;0.10;;;;;;;27.72;48.48;99968.59;5103122;27;20329;-65
2021/08/10 02:47:30;;;;;;;0.50;0.50;;;;;;;27.95;47.68;99963.84;5078117;27;20054;-66
2021/08/10 02:50:18;;;;;;;0.25;0.25;;;;;;;28.19;46.97;99969.88;5102671;27;20524;-68
2021/08/10 02:53:05;;;;;;;0.20;0.20;;;;;;;28.32;46.29;99957.38;5074827;27;20118;-64
2021/08/10 02:56:09;;;;;;;0.25;0.25;;;;;;;28.61;46.12;99964.38;5117150;27;20035;-66
2021/08/10 02:59:02;;;;;;;0.40;0.40;;;;;;;28.84;45.43;99970.31;5131836;27;20505;-65
2021/08/10 03:01:59;;;;;;;0.20;0.20;;;;;;;29.03;44.92;99960.69;5101817;27;20045;-62
2021/08/10 03:05:19;;;;;;;0.20;0.20;;;;;;;29.28;44.53;99961.03;5101522;27;20086;-61
2021/08/10 03:08:08;;;;;;;0.30;0.30;;;;;;;29.47;43.57;99946.81;5099706;27;20050;-66
2021/08/10 03:10:56;;;;;;;0.30;0.30;;;;;;;29.70;43.25;99955.34;5102287;27;20125;-64
2021/08/10 03:13:45;;;;;;;0.30;0.30;;;;;;;29.84;42.56;99951.63;5115312;27;20261;-63
2021/08/10 03:16:31;;;;;;;0.20;0.20;;;;;;;30.10;42.25;99958.91;5101160;27;20430;-65
2021/08/10 03:19:17;;;;;;;0.98;0.35;;;;;;;30.28;41.90;99942.94;5101616;27;20574;-65
2021/08/10 03:22:06;;;;;;;0.20;0.20;;;;;;;30.50;41.12;99946.25;5088084;27;20042;-64
2021/08/10 03:24:51;;;;;;;0.17;0.17;;;;;;;30.63;40.97;99942.72;5101283;27;20043;-65
2021/08/10 03:27:38;;;;;;;0.30;0.30;;;;;;;30.81;40.54;99935.59;5087159;27;20495;-66
2021/08/10 03:30:24;;;;;;;0.43;0.43;;;;;;;30.98;40.08;99934.13;5101422;27;20309;-66
2021/08/10 03:33:11;;;;;;;0.25;0.25;;;;;;;31.15;39.59;99936.31;5131027;27;20133;-66
2021/08/10 03:35:56;;;;;;;0.35;0.35;;;;;;;31.29;39.15;99936.00;5115440;27;20174;-65
2021/08/10 03:38:42;;;;;;;0.68;0.68;;;;;;;31.40;38.70;99932.63;5101025;27;20403;-65
2021/08/10 03:41:28;;;;;;;0.30;0.30;;;;;;;31.60;38.49;99942.50;5115154;27;20039;-61
2021/08/10 03:44:15;;;;;;;0.38;0.38;;;;;;;31.72;38.21;99932.66;5101400;27;20138;-63
2021/08/10 03:47:02;;;;;;;0.20;0.20;;;;;;;31.83;37.66;99927.38;5130389;27;20047;-63
2021/08/10 03:49:48;;;;;;;0.20;0.20;;;;;;;32.00;37.76;99933.88;5130210;27;20078;-63
2021/08/10 03:52:34;;;;;;;0.20;0.20;;;;;;;32.16;37.30;99927.13;5114764;28;20405;-64
2021/08/10 03:55:22;;;;;;;0.22;0.22;;;;;;;32.30;37.10;99928.66;5101180;28;20103;-63
2021/08/10 03:58:08;;;;;;;2.13;0.40;;;;;;;32.37;36.88;99918.59;5115065;28;20421;-63
2021/08/10 04:00:57;;;;;;;0.20;0.20;;;;;;;32.59;36.47;99927.16;5087705;28;20528;-63
2021/08/10 04:03:43;;;;;;;0.25;0.25;;;;;;;32.68;36.11;99931.19;5117470;27;20413;-63
2021/08/10 04:06:30;;;;;;;0.20;0.20;;;;;;;32.85;35.96;99932.22;5090933;27;20062;-63
2021/08/10 04:09:21;;;;;;;0.45;0.45;;;;;;;32.98;35.25;99937.47;5091953;27;20043;-64
2021/08/10 04:12:08;;;;;;;0.38;0.38;;;;;;;33.11;35.02;99935.69;5119182;27;20047;-63
2021/08/10 04:14:57;;;;;;;0.20;0.20;;;;;;;33.22;35.23;99929.50;5118979;27;20043;-63
2021/08/10 04:17:46;;;;;;;0.73;0.73;;;;;;;33.30;35.02;99929.19;5077702;27;20047;-62
2021/08/10 04:20:32;;;;;;;0.20;0.20;;;;;;;33.38;34.53;99928.84;5104936;27;20039;-63
2021/08/10 04:23:19;;;;;;;0.28;0.28;;;;;;;33.56;34.54;99920.69;5119153;27;20139;-63
2021/08/10 04:26:05;;;;;;;0.30;0.30;;;;;;;33.67;34.18;99925.31;5118952;27;20070;-63
2021/08/10 04:28:51;;;;;;;0.28;0.28;;;;;;;33.70;33.90;99919.47;5118663;27;20050;-63
2021/08/10 04:31:39;;;;;;;0.28;0.28;;;;;;;33.78;33.84;99916.41;5118489;27;20439;-64
2021/08/10 04:34:25;;;;;;;0.30;0.30;;;;;;;33.94;33.80;99921.13;5104738;27;20054;-63
2021/08/10 04:37:12;;;;;;;0.68;0.68;;;;;;;34.03;33.54;99916.19;5104659;27;20525;-63
2021/08/10 04:40:01;;;;;;;0.20;0.20;;;;;;;34.18;33.26;99911.16;5118867;27;20050;-64
2021/08/10 04:43:05;;;;;;;0.55;0.55;;;;;;;34.23;32.93;99902.31;5133992;27;20412;-63
2021/08/10 04:45:52;;;;;;;0.20;0.20;;;;;;;34.36;33.01;99910.22;5133457;27;20138;-64
2021/08/10 04:48:38;;;;;;;0.30;0.30;;;;;;;34.49;32.38;99905.34;5133540;27;20042;-64
2021/08/10 04:51:28;;;;;;;;;;;;;;;34.69;32.24;99906.88;5118761;27;20047;-63
2021/08/10 04:54:17;;;;;;;0.22;0.22;;;;;;;34.78;32.02;99902.75;5118421;27;19923;-63
2021/08/10 04:57:04;;;;;;;0.22;0.22;;;;;;;34.33;32.49;99897.94;5111856;28;20058;-63
2021/08/10 04:59:52;;;;;;;0.25;0.25;;;;;;;33.44;34.13;99909.00;5111952;28;20055;-62
2021/08/10 05:02:38;;;;;;;0.13;0.13;;;;;;;32.81;35.42;99901.28;5112688;28;20043;-63
2021/08/10 05:05:24;;;;;;;0.10;0.10;;;;;;;32.45;36.44;99906.66;5111873;28;20043;-63
2021/08/10 05:08:12;;;;;;;0.20;0.20;;;;;;;32.24;36.59;99897.09;5111753;28;20600;-63
2021/08/10 05:10:58;;;;;;;0.20;0.20;;;;;;;32.25;37.00;99900.63;5112644;28;20445;-62
2021/08/10 05:13:47;;;;;;;0.30;0.30;;;;;;;32.27;36.47;99890.41;5111473;28;20614;-62
2021/08/10 05:16:34;;;;;;;1.75;1.65;;;;;;;33.03;35.24;99901.63;5111409;28;20501;-63
2021/08/10 05:19:20;;;;;;;0.30;0.30;;;;;;;33.34;34.42;99890.59;5111647;28;20040;-63
2021/08/10 05:22:06;;;;;;;0.10;0.10;;;;;;;32.89;35.37;99895.56;5111709;28;20045;-63
2021/08/10 05:24:55;;;;;;;4.43;0.65;;;;;;;32.23;36.52;99891.94;5097715;28;20042;-63
2021/08/10 05:27:41;;;;;;;0.28;0.28;;;;;;;31.79;37.20;99901.84;5112249;28;20506;-64
2021/08/10 05:30:27;;;;;;;0.40;0.40;;;;;;;31.48;37.79;99893.75;5111485;28;20058;-63
2021/08/10 05:33:14;;;;;;;0.10;0.10;;;;;;;31.26;38.59;99900.53;5112707;28;20050;-64
2021/08/10 05:36:00;;;;;;;0.10;0.10;;;;;;;31.01;38.28;99895.06;5111316;28;20109;-63
2021/08/10 05:38:49;;;;;;;0.38;0.38;;;;;;;30.80;38.48;99896.16;5112130;28;20131;-64
2021/08/10 05:41:35;;;;;;;0.25;0.25;;;;;;;30.72;38.80;99907.22;5083560;28;20078;-63
2021/08/10 05:44:22;;;;;;;0.98;0.98;;;;;;;30.63;38.66;99886.91;5111329;28;20048;-63
2021/08/10 05:47:09;;;;;;;0.10;0.10;;;;;;;30.70;38.51;99893.09;5110914;28;20463;-63
2021/08/10 05:49:58;;;;;;;0.10;0.10;;;;;;;30.79;38.72;99899.91;5112183;28;20655;-63
2021/08/10 05:52:44;;;;;;;0.10;0.10;;;;;;;30.88;38.36;99901.34;5110715;28;20056;-64
2021/08/10 05:55:31;;;;;;;0.15;0.15;;;;;;;31.14;37.95;99902.28;5097045;28;20035;-64
2021/08/10 05:58:17;;;;;;;0.10;0.10;;;;;;;31.15;37.82;99895.84;5111031;28;20059;-64
2021/08/10 06:01:04;;;;;;;0.20;0.20;;;;;;;31.06;38.09;99891.72;5110755;28;20051;-64
2021/08/10 06:03:50;;;;;;;0.10;0.10;;;;;;;30.95;38.03;99896.78;5110664;28;20039;-65
2021/08/10 06:06:40;;;;;;;0.10;0.10;;;;;;;30.84;38.15;99899.28;5110460;28;20050;-64
2021/08/10 06:09:26;;;;;;;0.20;0.20;;;;;;;30.75;38.55;99898.69;5110832;28;20118;-63
2021/08/10 06:12:12;;;;;;;0.55;0.50;;;;;;;30.69;38.72;99890.63;5110800;28;20044;-64
2021/08/10 06:15:00;;;;;;;0.10;0.10;;;;;;;30.68;38.47;99895.19;5110898;28;20035;-64
2021/08/10 06:17:45;;;;;;;0.13;0.13;;;;;;;30.71;38.64;99888.53;5111304;28;20393;-64
2021/08/10 06:20:31;;;;;;;0.10;0.10;;;;;;;30.69;38.20;99891.47;5110545;28;20088;-65
2021/08/10 06:23:17;;;;;;;0.40;0.40;;;;;;;32.83;34.54;99893.75;5111289;28;20105;-63
2021/08/10 06:26:05;;;;;;;0.68;0.68;;;;;;;37.16;27.45;99894.63;5110322;28;20039;-64
2021/08/10 06:28:51;;;;;;;0.90;0.90;;;;;;;41.16;21.69;99885.59;5111660;28;20047;-66
2021/08/10 06:31:38;;;;;;;0.93;0.93;;;;;;;43.37;19.05;99890.66;5111974;28;20071;-64
2021/08/10 06:34:29;;;;;;;0.73;0.73;;;;;;;41.89;20.82;99900.94;5098199;28;20036;-63
2021/08/10 06:37:15;;;;;;;0.52;0.52;;;;;;;40.48;22.14;99879.84;5097100;28;20044;-61
2021/08/10 06:40:01;;;;;;;0.30;0.30;;;;;;;39.80;23.01;99895.84;5110784;28;20062;-66
2021/08/10 06:42:47;;;;;;;0.20;0.20;;;;;;;37.48;26.28;99905.59;5110894;28;20027;-65
2021/08/10 06:45:36;;;;;;;0.00;0.00;;;;;;;35.26;29.55;99902.34;5110733;28;20100;-65
2021/08/10 06:48:23;;;;;;;0.20;0.20;;;;;;;33.85;31.95;99900.84;5110711;28;20054;-67
2021/08/10 06:50:55;;;;;;;0.10;0.10;;;;;;;33.07;33.25;99907.41;5062316;28;20031;-65
2021/08/10 06:53:27;;;;;;;0.20;0.20;;;;;;;32.53;34.43;99915.31;5111513;28;20506;-66
2021/08/10 06:55:57;;;;;;;0.10;0.10;;;;;;;32.14;35.22;99902.19;5093849;28;20553;-67
2021/08/10 06:58:23;;;;;;;0.28;0.28;;;;;;;31.91;36.03;99907.34;5076896;28;20055;-65
2021/08/10 07:00:51;;;;;;;0.20;0.20;;;;;;;31.81;36.01;99899.75;5093533;28;20040;-67
2021/08/10 07:03:18;;;;;;;0.10;0.10;;;;;;;31.73;36.16;99894.63;5110101;28;20035;-61
2021/08/10 07:05:45;;;;;;;0.52;0.52;;;;;;;31.70;36.14;99889.69;5110459;28;20047;-65
2021/08/10 07:08:11;;;;;;;0.28;0.28;;;;;;;31.65;36.66;99891.38;5109647;28;20502;-63
2021/08/10 07:10:42;;;;;;;0.45;0.40;;;;;;;31.59;36.73;99893.06;5109971;28;20044;-61
2021/08/10 07:13:10;;;;;;;2.45;0.50;;;;;;;31.55;36.97;99875.66;5092530;28;20039;-63
2021/08/10 07:15:37;;;;;;;0.40;0.40;;;;;;;31.52;36.97;99884.19;5093042;28;20036;-65
2021/08/10 07:18:08;;;;;;;0.25;0.25;;;;;;;31.52;36.87;99888.75;5109987;28;20090;-66
2021/08/10 07:20:34;;;;;;;0.15;0.15;;;;;;;31.45;37.06;99888.78;5109744;28;20554;-60
2021/08/10 07:23:01;;;;;;;0.65;0.65;;;;;;;31.41;37.10;99887.59;5109077;28;20096;-63
2021/08/10 07:25:37;;;;;;;0.45;0.45;;;;;;;31.40;37.33;99889.44;5077418;28;20047;-65
2021/08/10 07:28:04;;;;;;;0.10;0.10;;;;;;;31.43;37.06;99891.72;5108814;28;20081;-60
2021/08/10 07:30:33;;;;;;;0.20;0.20;;;;;;;31.40;37.33;99883.22;5092663;28;20040;-61
2021/08/10 07:33:00;;;;;;;0.20;0.20;;;;;;;31.39;37.55;99887.78;5091766;28;20044;-63
2021/08/10 07:35:32;;;;;;;0.10;0.10;;;;;;;31.38;37.48;99886.13;5110262;28;20498;-67
2021/08/10 07:37:59;;;;;;;0.25;0.25;;;;;;;31.37;37.66;99880.97;5059343;28;20041;-65
2021/08/10 07:40:38;;;;;;;0.10;0.10;;;;;;;31.38;37.49;99877.22;5092298;28;20047;-65
2021/08/10 07:43:12;;;;;;;0.13;0.13;;;;;;;31.36;37.56;99882.00;5078655;28;20058;-67
2021/08/10 07:45:41;;;;;;;0.13;0.13;;;;;;;31.29;37.63;99883.91;5109568;28;20043;-65
2021/08/10 07:48:15;;;;;;;0.10;0.10;;;;;;;31.31;37.54;99879.13;5093686;28;20118;-60
2021/08/10 07:50:41;;;;;;;0.15;0.15;;;;;;;31.30;37.74;99878.31;5109385;28;20040;-65
2021/08/10 07:53:07;;;;;;;0.20;0.20;;;;;;;31.31;36.92;99887.22;5109010;28;20043;-67
